PDT,Max TemperatureF,Mean TemperatureF,Min TemperatureF,Max Dew PointF,MeanDew PointF,Min DewpointF,Max Humidity, Mean Humidity, Min Humidity, Max Sea Level PressureIn, Mean Sea Level PressureIn, Min Sea Level PressureIn, Max VisibilityMiles, Mean VisibilityMiles, Min VisibilityMiles, Max Wind SpeedMPH, Mean Wind SpeedMPH, Max Gust SpeedMPH,PrecipitationIn, CloudCover, Events, WindDirDegrees
2012-9-1,73,58,44,48,46,41,93,67,38,30.17,30.12,30.04,10,10,8,8,2,,0.00,,,305
2012-9-2,73,58,44,54,48,41,93,69,46,30.22,30.16,30.11,10,10,10,9,2,,0.00,,,304
2012-9-3,78,64,50,55,50,46,88,66,32,30.17,30.13,30.08,10,10,3,15,4,21,0.00,,,344
2012-9-4,82,66,51,54,50,46,88,61,30,30.19,30.13,30.06,10,10,9,14,4,20,0.00,,,345
2012-9-5,84,68,51,57,52,46,94,66,29,30.08,30.00,29.90,10,10,3,12,3,17,0.00,,,326
2012-9-6,87,71,55,55,53,50,88,61,29,30.02,29.97,29.94,10,10,4,13,3,18,0.00,,,340
2012-9-7,93,72,51,55,50,46,88,57,20,30.10,30.05,29.98,10,10,2,8,2,,0.00,,,341
2012-9-8,73,65,57,57,53,48,88,73,53,30.06,30.02,29.97,10,10,10,8,4,,0.00,,Thunderstorm,318
2012-9-9,64,60,57,52,49,46,72,65,52,30.07,30.04,30.02,10,10,2,13,4,17,0.00,,,166
2012-9-10,66,57,46,55,47,43,94,67,43,30.24,30.16,30.04,10,10,4,9,3,21,0.03,2,,308
2012-9-11,69,54,39,43,39,36,93,59,31,30.30,30.25,30.21,10,10,10,14,4,20,0.00,0,,337
2012-9-12,78,61,44,46,42,37,81,52,30,30.30,30.23,30.15,10,10,10,15,5,21,0.00,0,,5
2012-9-13,87,64,42,54,45,39,87,58,22,30.18,30.10,30.01,10,10,3,8,2,,0.00,0,,349
2012-9-14,82,65,48,57,51,45,93,67,35,30.09,30.05,29.99,10,10,9,9,2,,0.00,0,,306
2012-9-15,75,65,55,57,50,45,88,66,46,30.18,30.15,30.09,10,10,10,9,4,,0.00,3,,323
2012-9-16,80,61,42,52,47,39,87,62,36,30.22,30.15,30.07,10,10,7,12,4,16,0.00,0,,335
2012-9-17,87,68,48,54,50,43,87,59,29,30.09,30.03,29.96,10,10,2,10,3,,0.00,0,,344
2012-9-18,75,62,48,55,51,45,93,73,47,30.13,30.04,30.00,10,10,8,8,2,,0.00,1,,311
2012-9-19,66,60,53,54,52,50,94,80,64,30.15,30.12,30.09,10,10,4,9,4,,0.00,7,,319
2012-9-20,62,58,53,54,51,50,94,81,68,30.14,30.11,30.09,10,9,2,7,3,,0.00,8,,321
2012-9-21,62,58,55,54,53,52,94,81,68,30.17,30.14,30.13,10,9,2,8,1,,0.00,8,,356
2012-9-22,69,60,50,52,48,45,88,68,43,30.18,30.14,30.09,10,10,9,6,1,,0.00,2,,292
2012-9-23,71,58,44,52,46,39,93,70,43,30.16,30.12,30.09,10,10,4,12,2,17,0.00,0,,339
2012-9-24,69,58,46,54,50,45,93,75,53,30.17,30.12,30.08,10,10,2,8,1,,0.00,3,,295
2012-9-25,69,60,51,54,48,45,82,68,46,30.16,30.12,30.09,10,10,9,10,4,,0.00,5,,327
2012-9-26,71,60,48,50,47,45,87,69,43,30.12,30.07,30.01,10,10,8,13,3,17,0.00,3,,337
2012-9-27,78,62,46,52,48,43,93,63,39,30.05,29.99,29.91,10,10,8,10,2,,0.00,0,,345
2012-9-28,80,68,55,55,51,46,82,63,32,30.05,29.97,29.93,10,10,9,8,1,,0.00,0,,311
2012-9-29,69,60,51,55,48,45,88,65,43,30.29,30.18,30.05,10,10,6,10,3,16,0.00,4,,306
2012-9-30,73,58,42,45,41,37,87,59,29,30.39,30.33,30.29,10,10,10,15,4,22,0.00,0,,340